Algosoo — VGJD — position and weather

sailwx.info

Track history (hours):
 
Tides and Currents Weather Stations Pressure Air Temp Water Temp Dewpoint Dewpoint Depression Visibility Wind Speed Wind Dir Waves Ship Positions

Algosoo

Last reported at 2015-Jun-29 03:09 UTC. Time now 2015-Jul-04 11:49 UTC.
Position N 46°28' W 072°15'.

Length 223 m; draft 6.8 m.

Type: Cargo ship. MMSI: 316001799.

Date/timePositionNaut miles runAvg speedWind from/ knotsBaromVisibWave heightAir tempDewpointWater temp
2015-Jun-29 03:09N 46°28' W 072°15'610.4
2015-Jun-29 02:33N 46°25' W 072°23'1110.6
2015-Jun-29 01:33N 46°18' W 072°34'1010.2
2015-Jun-29 00:33N 46°13' W 072°47'54 8.9
2015-Jun-28 18:33N 45°29' W 073°31'7 2.9
2015-Jun-28 16:05N 45°24' W 073°38'3 6.2
2015-Jun-28 15:33N 45°25' W 073°43'10 9.7
2015-Jun-28 14:34N 45°20' W 073°54'2 1.6
2015-Jun-28 13:34N 45°18' W 073°56'5 4.4
2015-Jun-28 12:23N 45°14' W 073°60'110 8.4
2015-Jun-27 23:18N 44°14' W 076°09'2330.3
2015-Jun-27 22:34N 43°57' W 076°31'0 0.0
2015-Jun-27 21:34N 43°57' W 076°31'0 0.0
2015-Jun-27 20:33N 43°57' W 076°31'  
2015-Jun-22 19:33N 42°47' W 080°05'0 0.0
2015-Jun-22 18:33N 42°47' W 080°05'0 0.0
2015-Jun-22 17:33N 42°47' W 080°05'0 0.0
2015-Jun-22 16:33N 42°47' W 080°05'0 0.0
2015-Jun-22 15:33N 42°47' W 080°05'0 0.0
2015-Jun-22 14:33N 42°47' W 080°05'0 0.0
2015-Jun-22 13:33N 42°47' W 080°05'0 0.0
2015-Jun-22 12:33N 42°47' W 080°05'0 0.0
2015-Jun-22 11:33N 42°47' W 080°05'5 5.3
2015-Jun-22 10:34N 42°42' W 080°08'6 6.3
2015-Jun-22 09:33N 42°39' W 080°01'7 6.6
2015-Jun-22 08:33N 42°39' W 079°52'7 6.6
2015-Jun-22 07:33N 42°39' W 079°43'9 7.5
2015-Jun-22 06:18N 42°43' W 079°31'35 0.8
2015-Jun-20 09:27N 43°18' W 079°30'3 3.7
2015-Jun-20 08:33N 43°18' W 079°25'4 3.7
2015-Jun-20 07:32N 43°18' W 079°20'6 5.0
2015-Jun-20 06:24N 43°15' W 079°13'4 2.1
2015-Jun-20 04:33N 43°11' W 079°12'2 2.0
2015-Jun-20 03:27N 43°09' W 079°12'51 5.1
2015-Jun-19 17:33N 42°29' W 079°54'  
Track history (hours):
 
Tides and Currents Weather Stations Pressure Air Temp Water Temp Dewpoint Dewpoint Depression Visibility Wind Speed Wind Dir Waves Ship Positions

Algosoo

Last reported at 2015-Jun-29 03:09 UTC. Time now 2015-Jul-04 11:49 UTC.
Position N 46°28' W 072°15'.

Length 223 m; draft 6.8 m.

Type: Cargo ship. MMSI: 316001799.

Date/timePositionNaut miles runAvg speedWind from/ knotsBaromVisibWave heightAir tempDewpointWater temp
2015-Jun-29 03:09N 46°28' W 072°15'610.4
2015-Jun-29 02:33N 46°25' W 072°23'1110.6
2015-Jun-29 01:33N 46°18' W 072°34'1010.2
2015-Jun-29 00:33N 46°13' W 072°47'54 8.9
2015-Jun-28 18:33N 45°29' W 073°31'7 2.9
2015-Jun-28 16:05N 45°24' W 073°38'3 6.2
2015-Jun-28 15:33N 45°25' W 073°43'10 9.7
2015-Jun-28 14:34N 45°20' W 073°54'2 1.6
2015-Jun-28 13:34N 45°18' W 073°56'5 4.4
2015-Jun-28 12:23N 45°14' W 073°60'110 8.4
2015-Jun-27 23:18N 44°14' W 076°09'2330.3
2015-Jun-27 22:34N 43°57' W 076°31'0 0.0
2015-Jun-27 21:34N 43°57' W 076°31'0 0.0
2015-Jun-27 20:33N 43°57' W 076°31'  
2015-Jun-22 19:33N 42°47' W 080°05'0 0.0
2015-Jun-22 18:33N 42°47' W 080°05'0 0.0
2015-Jun-22 17:33N 42°47' W 080°05'0 0.0
2015-Jun-22 16:33N 42°47' W 080°05'0 0.0
2015-Jun-22 15:33N 42°47' W 080°05'0 0.0
2015-Jun-22 14:33N 42°47' W 080°05'0 0.0
2015-Jun-22 13:33N 42°47' W 080°05'0 0.0
2015-Jun-22 12:33N 42°47' W 080°05'0 0.0
2015-Jun-22 11:33N 42°47' W 080°05'5 5.3
2015-Jun-22 10:34N 42°42' W 080°08'6 6.3
2015-Jun-22 09:33N 42°39' W 080°01'7 6.6
2015-Jun-22 08:33N 42°39' W 079°52'7 6.6
2015-Jun-22 07:33N 42°39' W 079°43'9 7.5
2015-Jun-22 06:18N 42°43' W 079°31'35 0.8
2015-Jun-20 09:27N 43°18' W 079°30'3 3.7
2015-Jun-20 08:33N 43°18' W 079°25'4 3.7
2015-Jun-20 07:32N 43°18' W 079°20'6 5.0
2015-Jun-20 06:24N 43°15' W 079°13'4 2.1
2015-Jun-20 04:33N 43°11' W 079°12'2 2.0
2015-Jun-20 03:27N 43°09' W 079°12'51 5.1
2015-Jun-19 17:33N 42°29' W 079°54'  

Dump ship's entire track history